Skyline Princess — WDB7684 — position and weather

sailwx.info

Track history (hours):
 
Tides and Currents Weather Stations Pressure Air Temp Water Temp Dewpoint Dewpoint Depression Visibility Wind Speed Wind Dir Waves Ship Positions

Skyline Princess

Owner: Skyline Cruise Lines Inc, Flushing, NY. More information available from US FCC via Universal Licensing System and Coast Guard Vessel Documentation Center.

Last reported at 2017-Nov-19 04:42 UTC. Time now 2017-Nov-22 07:32 UTC.
Position N 40°46' W 073°51'.

MMSI: 366946170.

Date/timePositionNaut miles runAvg speedWind from/ knotsBaromVisibWave heightAir tempDewpointWater temp
2017-Nov-19 04:42N 40°46' W 073°51'1 6.5
2017-Nov-19 04:30N 40°47' W 073°52'3 5.1
2017-Nov-19 03:56N 40°47' W 073°55'2 5.6
2017-Nov-19 03:30N 40°45' W 073°58'3 6.1
2017-Nov-19 03:00N 40°42' W 073°59'2 4.8
2017-Nov-19 02:30N 40°41' W 074°02'3 6.7
2017-Nov-19 02:00N 40°43' W 073°58'3 6.3
2017-Nov-19 01:30N 40°46' W 073°57'3 4.9
2017-Nov-19 00:58N 40°48' W 073°54'3 5.5
2017-Nov-19 00:30N 40°47' W 073°51'1 0.2
2017-Nov-18 20:19N 40°46' W 073°51'  
2017-Nov-12 03:44N 40°46' W 073°51'1 6.5
2017-Nov-12 03:30N 40°47' W 073°52'3 5.5
2017-Nov-12 02:59N 40°47' W 073°55'3 5.8
2017-Nov-12 02:30N 40°45' W 073°58'3 5.6
2017-Nov-12 02:00N 40°42' W 073°59'3 5.5
2017-Nov-12 01:30N 40°41' W 074°03'4 8.3
2017-Nov-12 01:00N 40°44' W 073°58'510.4
2017-Nov-12 00:29N 40°48' W 073°54'3 5.8
2017-Nov-11 23:57N 40°46' W 073°51'  
Track history (hours):
 
Tides and Currents Weather Stations Pressure Air Temp Water Temp Dewpoint Dewpoint Depression Visibility Wind Speed Wind Dir Waves Ship Positions

Skyline Princess

Owner: Skyline Cruise Lines Inc, Flushing, NY. More information available from US FCC via Universal Licensing System and Coast Guard Vessel Documentation Center.

Last reported at 2017-Nov-19 04:42 UTC. Time now 2017-Nov-22 07:32 UTC.
Position N 40°46' W 073°51'.

MMSI: 366946170.

Date/timePositionNaut miles runAvg speedWind from/ knotsBaromVisibWave heightAir tempDewpointWater temp
2017-Nov-19 04:42N 40°46' W 073°51'1 6.5
2017-Nov-19 04:30N 40°47' W 073°52'3 5.1
2017-Nov-19 03:56N 40°47' W 073°55'2 5.6
2017-Nov-19 03:30N 40°45' W 073°58'3 6.1
2017-Nov-19 03:00N 40°42' W 073°59'2 4.8
2017-Nov-19 02:30N 40°41' W 074°02'3 6.7
2017-Nov-19 02:00N 40°43' W 073°58'3 6.3
2017-Nov-19 01:30N 40°46' W 073°57'3 4.9
2017-Nov-19 00:58N 40°48' W 073°54'3 5.5
2017-Nov-19 00:30N 40°47' W 073°51'1 0.2
2017-Nov-18 20:19N 40°46' W 073°51'  
2017-Nov-12 03:44N 40°46' W 073°51'1 6.5
2017-Nov-12 03:30N 40°47' W 073°52'3 5.5
2017-Nov-12 02:59N 40°47' W 073°55'3 5.8
2017-Nov-12 02:30N 40°45' W 073°58'3 5.6
2017-Nov-12 02:00N 40°42' W 073°59'3 5.5
2017-Nov-12 01:30N 40°41' W 074°03'4 8.3
2017-Nov-12 01:00N 40°44' W 073°58'510.4
2017-Nov-12 00:29N 40°48' W 073°54'3 5.8
2017-Nov-11 23:57N 40°46' W 073°51'  

Dump ship's entire track history